Time;durP1;ratioP1;P1;durP2;ratioP2;P2;SDS_P1;SDS_P2;PMS_P1;PMS_P2;Temp;Humidity;BMP_temperature;BMP_pressure;BME280_temperature;BME280_humidity;BME280_pressure;Samples;Min_cycle;Max_cycle;Signal;HPM_P1;HPM_P2
2023/05/20 00:00:08;;;;;;;23.60;12.05;;;;;;;12.16;89.10;102980.91;5046059;28;20468;-68
2023/05/20 00:02:34;;;;;;;23.40;12.93;;;;;;;12.14;89.25;102982.06;5080703;28;20036;-68
2023/05/20 00:04:59;;;;;;;22.42;13.05;;;;;;;12.01;88.72;102968.97;5081627;28;20064;-68
2023/05/20 00:07:25;;;;;;;20.73;13.00;;;;;;;12.04;88.75;102992.94;5083410;28;20028;-68
2023/05/20 00:09:51;;;;;;;22.77;14.63;;;;;;;11.82;89.01;102961.88;5102623;28;20020;-68
2023/05/20 00:12:16;;;;;;;21.73;14.23;;;;;;;11.96;88.69;102979.38;5081618;28;20028;-67
2023/05/20 00:14:42;;;;;;;24.48;14.20;;;;;;;11.86;89.24;102963.28;5095815;28;20047;-68
2023/05/20 00:17:07;;;;;;;20.38;13.25;;;;;;;11.95;89.06;102985.75;5062504;28;20020;-68
2023/05/20 00:19:33;;;;;;;27.58;14.07;;;;;;;11.89;89.10;102984.56;5047830;28;20085;-68
2023/05/20 00:21:58;;;;;;;27.67;15.30;;;;;;;11.74;89.08;102968.00;5081354;28;20483;-68
2023/05/20 00:24:24;;;;;;;22.52;15.38;;;;;;;11.84;89.30;102984.16;5081703;28;20032;-68
2023/05/20 00:26:50;;;;;;;32.28;16.70;;;;;;;11.87;89.31;102996.50;5080818;28;20020;-68
2023/05/20 00:29:15;;;;;;;26.58;17.77;;;;;;;11.89;89.81;102987.25;5081813;28;20128;-68
2023/05/20 00:31:40;;;;;;;28.92;16.58;;;;;;;11.99;89.80;102996.09;5082034;28;20028;-68
2023/05/20 00:34:07;;;;;;;29.33;16.95;;;;;;;11.99;89.96;102989.88;5081821;28;20081;-68
2023/05/20 00:36:32;;;;;;;23.77;15.63;;;;;;;11.91;89.42;102974.44;5064332;28;20028;-68
2023/05/20 00:38:58;;;;;;;22.63;14.25;;;;;;;11.81;89.69;102983.56;5099682;28;20024;-68
2023/05/20 00:41:23;;;;;;;26.25;14.85;;;;;;;11.67;89.64;102977.72;5099887;28;20027;-68
2023/05/20 00:43:55;;;;;;;23.63;14.77;;;;;;;11.59;89.69;102961.47;5064592;28;20031;-68
2023/05/20 00:46:22;;;;;;;19.77;13.57;;;;;;;11.62;89.90;102977.34;5080986;28;20032;-68
2023/05/20 00:48:49;;;;;;;26.17;15.75;;;;;;;11.58;89.52;102978.63;5088881;28;20098;-68
2023/05/20 00:51:14;;;;;;;26.38;14.52;;;;;;;11.54;89.63;102977.25;5085323;28;20036;-69
2023/05/20 00:53:41;;;;;;;25.85;14.93;;;;;;;11.50;89.08;102975.84;5098724;28;20031;-68
2023/05/20 00:56:07;;;;;;;27.05;16.00;;;;;;;11.50;89.36;102974.00;5081366;28;20058;-68
2023/05/20 00:58:35;;;;;;;22.13;15.40;;;;;;;11.47;89.86;102979.69;5099257;28;20032;-68
2023/05/20 01:01:01;;;;;;;24.13;13.98;;;;;;;11.42;89.83;102982.03;5099799;28;20170;-68
2023/05/20 01:03:27;;;;;;;24.02;12.98;;;;;;;11.34;89.71;102979.22;5081157;28;20032;-68
2023/05/20 01:05:53;;;;;;;20.35;13.45;;;;;;;11.27;90.23;102978.13;5079691;28;20024;-68
2023/05/20 01:08:19;;;;;;;21.73;13.35;;;;;;;11.22;89.89;102975.88;5098737;28;20028;-68
2023/05/20 01:10:48;;;;;;;29.20;15.30;;;;;;;11.11;89.94;102959.91;5080382;28;20057;-68
2023/05/20 01:13:20;;;;;;;25.40;16.08;;;;;;;11.22;89.76;102972.31;5096566;28;20467;-68
2023/05/20 01:15:48;;;;;;;24.30;15.07;;;;;;;11.23;90.10;102971.34;5075965;28;20050;-68
2023/05/20 01:18:24;;;;;;;26.00;14.55;;;;;;;10.94;89.79;102917.63;5080247;28;20023;-68
2023/05/20 01:20:53;;;;;;;23.38;13.05;;;;;;;11.16;89.80;102963.03;5080239;28;20028;-68
2023/05/20 01:23:19;;;;;;;20.75;13.85;;;;;;;11.09;89.96;102971.81;5080509;28;20432;-69
2023/05/20 01:25:44;;;;;;;20.00;13.63;;;;;;;11.03;90.13;102967.91;5062361;28;20024;-68
2023/05/20 01:28:16;;;;;;;23.92;15.15;;;;;;;11.01;89.83;102975.28;5079040;28;20020;-68
2023/05/20 01:30:47;;;;;;;20.63;15.05;;;;;;;11.06;90.01;102978.38;5079465;28;20089;-68
2023/05/20 01:33:15;;;;;;;25.98;15.95;;;;;;;10.98;90.16;102972.88;5097187;28;20028;-68
2023/05/20 01:35:41;;;;;;;25.45;16.27;;;;;;;11.05;90.39;102980.22;5098208;28;20456;-68
2023/05/20 01:38:07;;;;;;;22.80;15.07;;;;;;;10.90;90.18;102970.94;5097858;28;20031;-68
2023/05/20 01:40:33;;;;;;;24.73;16.38;;;;;;;10.98;90.53;102987.19;5080454;28;20040;-68
2023/05/20 01:43:01;;;;;;;26.60;16.58;;;;;;;10.99;90.80;102986.22;5098945;28;20028;-68
2023/05/20 01:45:27;;;;;;;27.00;16.08;;;;;;;10.98;90.89;102989.03;5094408;28;20455;-68
2023/05/20 01:47:52;;;;;;;22.05;14.50;;;;;;;10.87;90.43;102975.78;5097438;28;20430;-68
2023/05/20 01:50:18;;;;;;;23.23;14.88;;;;;;;10.88;90.80;102983.69;5080623;28;20483;-68
2023/05/20 01:52:43;;;;;;;19.52;14.18;;;;;;;10.73;90.29;102969.03;5098225;28;20403;-68
2023/05/20 01:55:10;;;;;;;27.02;15.73;;;;;;;10.77;90.40;102976.66;5060917;28;20038;-67
2023/05/20 01:57:35;;;;;;;23.33;14.63;;;;;;;10.81;90.65;102986.13;5080255;28;20028;-67
2023/05/20 02:00:02;;;;;;;22.92;15.23;;;;;;;10.79;91.14;102979.19;5098251;28;20051;-68
2023/05/20 02:02:28;;;;;;;26.55;15.48;;;;;;;10.83;90.71;102991.38;5063007;28;20426;-68
2023/05/20 02:04:53;;;;;;;26.90;16.38;;;;;;;10.63;91.07;102963.66;5094009;28;20415;-68
2023/05/20 02:07:19;;;;;;;21.98;14.30;;;;;;;10.73;90.66;102972.56;5078281;28;20020;-68
2023/05/20 02:09:45;;;;;;;18.30;14.10;;;;;;;10.78;91.23;102978.34;5079129;28;20023;-67
2023/05/20 02:12:15;;;;;;;22.90;14.88;;;;;;;10.70;91.14;102972.84;5079304;28;20042;-67
2023/05/20 02:14:45;;;;;;;23.20;15.20;;;;;;;10.75;90.82;102977.78;5078249;28;20028;-68
2023/05/20 02:17:11;;;;;;;20.73;14.13;;;;;;;10.70;91.16;102983.63;5077807;28;20028;-68
2023/05/20 02:19:37;;;;;;;22.13;14.98;;;;;;;10.65;91.14;102988.59;5075265;28;20073;-67
2023/05/20 02:22:02;;;;;;;24.90;15.88;;;;;;;10.69;91.12;102998.06;5079030;28;20224;-68
2023/05/20 02:24:27;;;;;;;22.13;15.07;;;;;;;10.62;91.32;102974.56;5079592;28;20429;-68
2023/05/20 02:26:54;;;;;;;21.92;15.32;;;;;;;10.63;90.93;102995.97;5062250;28;20066;-67
2023/05/20 02:29:21;;;;;;;25.95;14.60;;;;;;;10.52;91.11;102986.19;5078543;28;20024;-67
2023/05/20 02:31:47;;;;;;;25.45;15.38;;;;;;;10.41;91.15;102982.84;5097038;28;20102;-67
2023/05/20 02:34:14;;;;;;;22.90;15.30;;;;;;;10.55;91.43;103002.06;5062783;28;20028;-67
2023/05/20 02:36:40;;;;;;;22.50;14.38;;;;;;;10.52;91.42;102993.44;5097234;28;20043;-68
2023/05/20 02:39:06;;;;;;;24.55;14.82;;;;;;;10.52;90.87;103001.50;5062603;28;20052;-67
2023/05/20 02:41:31;;;;;;;21.83;13.10;;;;;;;10.51;91.15;102992.59;5079132;28;20028;-67
2023/05/20 02:43:56;;;;;;;22.98;14.95;;;;;;;10.46;91.29;102999.41;5079240;28;20035;-67
2023/05/20 02:46:22;;;;;;;21.65;15.27;;;;;;;10.43;90.96;102994.31;5111566;28;20066;-67
2023/05/20 02:48:47;;;;;;;22.38;14.48;;;;;;;10.45;91.42;102997.72;5099874;28;20028;-67
2023/05/20 02:51:13;;;;;;;23.23;14.90;;;;;;;10.47;90.72;102995.72;5077992;28;20407;-67
2023/05/20 02:53:38;;;;;;;21.73;14.93;;;;;;;10.47;91.02;103001.97;5082077;28;20036;-68
2023/05/20 02:56:04;;;;;;;20.38;13.50;;;;;;;10.46;90.27;102988.63;5071732;28;20032;-67
2023/05/20 02:58:30;;;;;;;21.35;13.93;;;;;;;10.35;90.29;102974.34;5079408;28;20036;-67
2023/05/20 03:00:56;;;;;;;20.65;14.05;;;;;;;10.60;90.26;102985.50;5078504;28;20133;-67
2023/05/20 03:03:24;;;;;;;17.38;13.57;;;;;;;10.91;89.20;102998.72;5063142;28;20028;-68
2023/05/20 03:05:51;;;;;;;20.95;14.43;;;;;;;11.12;88.40;102991.22;5096067;28;20050;-67
2023/05/20 03:08:19;;;;;;;25.80;14.73;;;;;;;11.28;87.33;102967.19;5076243;28;20453;-68
2023/05/20 03:10:45;;;;;;;21.65;14.43;;;;;;;11.56;86.34;102974.41;5096579;28;20083;-68
2023/05/20 03:13:13;;;;;;;23.50;15.80;;;;;;;11.79;85.93;102996.38;5061948;28;20083;-67
2023/05/20 03:15:44;;;;;;;24.08;14.60;;;;;;;12.11;85.42;102999.41;5079323;28;20032;-67
2023/05/20 03:18:10;;;;;;;21.15;14.77;;;;;;;12.39;83.98;102999.31;5097202;28;20096;-67
2023/05/20 03:20:37;;;;;;;23.02;14.98;;;;;;;12.58;82.86;102976.63;5096982;28;20067;-67
2023/05/20 03:23:03;;;;;;;22.10;14.35;;;;;;;12.98;81.96;102981.44;5079412;28;20028;-67
2023/05/20 03:25:30;;;;;;;19.17;13.60;;;;;;;13.49;81.12;102989.59;5097238;28;20027;-68
2023/05/20 03:27:57;;;;;;;21.02;13.98;;;;;;;13.85;79.75;102984.75;5099786;28;20115;-67
2023/05/20 03:30:23;;;;;;;19.58;12.77;;;;;;;14.21;78.29;102987.13;5112248;28;20020;-67
2023/05/20 03:32:48;;;;;;;19.23;12.52;;;;;;;14.49;77.33;102993.03;5101353;28;20024;-68
2023/05/20 03:35:14;;;;;;;20.40;13.40;;;;;;;14.84;76.30;102986.38;5082700;28;20042;-68
2023/05/20 03:37:40;;;;;;;18.38;12.63;;;;;;;15.11;75.15;102986.97;5049430;28;20059;-68
2023/05/20 03:40:06;;;;;;;14.05;11.75;;;;;;;15.25;73.88;102976.19;5083274;28;20111;-68
2023/05/20 03:42:33;;;;;;;17.48;11.85;;;;;;;15.53;73.00;102986.59;5087137;28;20020;-69
2023/05/20 03:44:59;;;;;;;13.98;11.50;;;;;;;15.89;72.02;102992.31;5106895;28;20097;-68
2023/05/20 03:47:25;;;;;;;16.08;11.05;;;;;;;16.02;70.80;102986.25;5100447;28;20031;-68
2023/05/20 03:49:51;;;;;;;15.43;10.73;;;;;;;16.13;70.25;102993.97;5100215;28;20081;-68
2023/05/20 03:52:16;;;;;;;16.98;11.48;;;;;;;16.33;68.87;102993.47;5082206;28;20028;-69
2023/05/20 03:54:42;;;;;;;14.10;9.77;;;;;;;16.47;68.71;102998.09;5081524;28;20024;-68
2023/05/20 03:57:09;;;;;;;13.68;9.90;;;;;;;16.62;68.02;102970.91;5082918;28;20032;-68
2023/05/20 03:59:35;;;;;;;12.82;9.52;;;;;;;16.98;67.16;102983.78;5101060;28;20040;-68
2023/05/20 04:02:01;;;;;;;12.90;9.57;;;;;;;17.19;66.22;102989.31;5101732;28;20028;-68
2023/05/20 04:04:27;;;;;;;16.20;10.32;;;;;;;17.30;65.98;102988.00;5081733;28;20233;-68
2023/05/20 04:06:53;;;;;;;17.42;10.32;;;;;;;17.54;65.02;102987.63;5100393;28;20051;-68
2023/05/20 04:09:18;;;;;;;16.00;10.10;;;;;;;17.64;64.44;102987.31;5063562;28;20483;-68
2023/05/20 04:11:44;;;;;;;16.92;10.65;;;;;;;17.65;64.08;102989.03;5097826;28;20035;-69
2023/05/20 04:14:10;;;;;;;16.65;10.57;;;;;;;18.02;63.67;102995.28;5079856;28;20043;-68
2023/05/20 04:16:36;;;;;;;15.02;9.60;;;;;;;18.27;62.82;102996.53;5080817;28;20028;-69
2023/05/20 04:19:02;;;;;;;12.88;9.40;;;;;;;18.58;61.68;102995.34;5099983;28;20358;-69
2023/05/20 04:21:28;;;;;;;13.63;8.50;;;;;;;18.89;60.34;102975.81;5082437;28;20035;-68
2023/05/20 04:23:53;;;;;;;11.85;8.48;;;;;;;19.12;59.49;102991.88;5065435;28;20032;-69
2023/05/20 04:26:19;;;;;;;13.25;9.20;;;;;;;19.32;58.78;102974.75;5089051;28;20020;-69
2023/05/20 04:28:47;;;;;;;12.73;9.27;;;;;;;19.60;58.11;102999.19;5102523;28;20122;-69
2023/05/20 04:31:13;;;;;;;15.65;9.43;;;;;;;20.01;56.92;103001.84;5099822;28;20038;-69
2023/05/20 04:33:38;;;;;;;13.35;8.85;;;;;;;19.78;56.73;102995.94;5081443;28;20510;-68
2023/05/20 04:36:06;;;;;;;12.40;10.05;;;;;;;19.29;57.71;102997.00;5081161;28;20036;-69
2023/05/20 04:38:32;;;;;;;12.85;9.65;;;;;;;19.10;57.75;102998.59;5099828;28;20059;-69
2023/05/20 04:40:59;;;;;;;19.77;10.05;;;;;;;19.29;57.75;102997.00;5099982;28;20054;-69
2023/05/20 04:43:25;;;;;;;12.98;9.18;;;;;;;19.45;57.43;102996.63;5098063;28;20466;-69
2023/05/20 04:45:54;;;;;;;12.23;9.10;;;;;;;19.97;56.51;102989.66;5099458;28;20032;-68
2023/05/20 04:48:21;;;;;;;11.07;8.40;;;;;;;20.30;55.62;102973.25;5081980;28;20030;-69
2023/05/20 04:50:47;;;;;;;14.70;9.45;;;;;;;20.54;54.93;103003.75;5081821;28;20028;-69
2023/05/20 04:53:13;;;;;;;12.48;9.32;;;;;;;19.89;55.76;102998.88;5099672;28;20020;-69
2023/05/20 04:55:38;;;;;;;10.25;8.52;;;;;;;19.78;56.52;103002.22;5081537;28;20035;-69
2023/05/20 04:58:04;;;;;;;11.20;8.45;;;;;;;20.07;56.10;102998.28;5098798;28;20031;-69
2023/05/20 05:00:30;;;;;;;12.80;8.93;;;;;;;20.28;55.55;102993.66;5098914;28;20080;-69
2023/05/20 05:02:55;;;;;;;12.30;8.52;;;;;;;20.54;54.96;102996.41;5081120;28;20161;-69
2023/05/20 05:05:20;;;;;;;12.80;8.13;;;;;;;20.32;55.63;102992.16;5064696;28;20088;-69
2023/05/20 05:07:46;;;;;;;14.05;8.55;;;;;;;20.20;56.05;102997.44;5082350;28;20028;-69
2023/05/20 05:10:12;;;;;;;10.45;7.97;;;;;;;20.13;56.49;103000.19;5081972;28;20095;-68
2023/05/20 05:12:37;;;;;;;10.95;7.57;;;;;;;20.09;57.30;103001.63;5099388;28;20474;-69
2023/05/20 05:15:03;;;;;;;12.15;7.70;;;;;;;20.17;57.13;102998.69;5098544;28;20624;-69
2023/05/20 05:17:29;;;;;;;13.65;8.57;;;;;;;20.45;56.45;103003.09;5079831;28;20040;-69
2023/05/20 05:19:54;;;;;;;10.18;7.38;;;;;;;20.42;56.78;103007.09;5080614;28;20039;-69
2023/05/20 05:22:19;;;;;;;12.00;7.13;;;;;;;20.40;56.99;103005.66;5081344;28;20032;-69
2023/05/20 05:24:45;;;;;;;12.90;7.57;;;;;;;20.25;57.22;103007.72;5081048;28;20028;-69
2023/05/20 05:27:10;;;;;;;10.80;7.35;;;;;;;19.83;57.99;102990.66;5047939;28;20097;-69
2023/05/20 05:29:36;;;;;;;10.00;6.68;;;;;;;19.87;58.30;103005.63;5080422;28;20035;-69
2023/05/20 05:32:01;;;;;;;14.10;7.80;;;;;;;19.78;59.28;103007.69;5060781;28;20548;-69
2023/05/20 05:34:27;;;;;;;10.50;7.25;;;;;;;19.31;59.74;103000.38;5104576;28;20032;-70
2023/05/20 05:36:52;;;;;;;12.25;7.47;;;;;;;19.04;60.71;102992.06;5091257;28;20031;-69
2023/05/20 05:39:17;;;;;;;10.23;6.97;;;;;;;18.52;62.92;103013.31;5085035;28;20063;-69
2023/05/20 05:41:43;;;;;;;12.73;7.60;;;;;;;18.12;65.18;103006.69;5080434;28;20047;-70
2023/05/20 05:44:08;;;;;;;10.77;7.97;;;;;;;18.01;65.85;103008.06;5080577;28;20035;-69
2023/05/20 05:46:34;;;;;;;14.02;8.52;;;;;;;17.69;66.55;103005.81;5046993;28;20024;-69
2023/05/20 05:48:59;;;;;;;12.57;8.75;;;;;;;17.66;67.52;103003.47;5063333;28;20059;-69
2023/05/20 05:51:27;;;;;;;11.43;7.68;;;;;;;17.47;68.83;103005.78;5063941;28;20067;-69
2023/05/20 05:53:53;;;;;;;9.77;7.53;;;;;;;17.48;69.20;103003.88;5079838;28;20167;-69
2023/05/20 05:56:19;;;;;;;10.80;7.45;;;;;;;17.45;68.59;102998.81;5098147;28;20032;-69
2023/05/20 05:58:44;;;;;;;13.93;7.68;;;;;;;17.30;69.05;102999.72;5079759;28;20407;-69
2023/05/20 06:01:10;;;;;;;11.75;7.57;;;;;;;17.26;69.43;102997.56;5080298;28;20570;-69
2023/05/20 06:03:36;;;;;;;10.13;7.38;;;;;;;17.32;70.06;102981.31;5098437;28;20074;-69
2023/05/20 06:06:01;;;;;;;11.05;6.75;;;;;;;17.37;70.74;102994.34;5063094;28;20110;-69
2023/05/20 06:08:26;;;;;;;10.10;6.22;;;;;;;17.63;70.35;102984.81;5063054;28;20028;-69
2023/05/20 06:10:52;;;;;;;10.55;6.22;;;;;;;17.82;70.17;102995.94;5080153;28;20028;-70
2023/05/20 06:13:17;;;;;;;13.68;5.68;;;;;;;17.98;69.05;102996.69;5098591;28;20028;-69
2023/05/20 06:15:44;;;;;;;9.70;5.90;;;;;;;18.01;68.58;102982.69;5080638;28;20067;-69
2023/05/20 06:18:11;;;;;;;9.57;5.60;;;;;;;18.06;67.91;102993.84;5099382;28;20439;-69
2023/05/20 06:20:37;;;;;;;6.60;4.82;;;;;;;18.06;67.21;102999.31;5098564;28;20043;-69
2023/05/20 06:23:04;;;;;;;10.80;5.85;;;;;;;17.88;66.75;102977.13;5097119;28;20036;-70
2023/05/20 06:25:29;;;;;;;10.15;5.47;;;;;;;18.28;66.10;102995.53;5064824;28;20036;-69
2023/05/20 06:27:55;;;;;;;8.75;5.07;;;;;;;18.37;65.52;102996.22;5104245;28;20039;-70
2023/05/20 06:30:20;;;;;;;8.20;4.85;;;;;;;18.52;64.45;103002.41;5071897;28;20051;-70
2023/05/20 06:32:46;;;;;;;9.25;4.97;;;;;;;18.43;64.19;103003.59;5066803;28;20027;-69
2023/05/20 06:35:11;;;;;;;9.93;5.43;;;;;;;18.70;63.32;102999.16;5079173;28;20024;-69
2023/05/20 06:37:36;;;;;;;7.85;4.85;;;;;;;18.95;62.43;102983.19;5063406;28;20027;-69
2023/05/20 06:40:02;;;;;;;10.90;4.80;;;;;;;18.93;61.69;102996.19;5062778;28;20032;-70
2023/05/20 06:42:28;;;;;;;9.07;4.50;;;;;;;18.97;61.32;102974.81;5079292;28;20028;-69
2023/05/20 06:44:53;;;;;;;9.10;4.88;;;;;;;19.07;61.21;102983.44;5079828;28;20102;-69
2023/05/20 06:47:19;;;;;;;8.40;4.68;;;;;;;19.17;60.21;102981.22;5079192;28;20040;-70
2023/05/20 06:49:45;;;;;;;11.50;4.50;;;;;;;19.29;59.70;102986.91;5096735;28;20425;-69
2023/05/20 06:52:10;;;;;;;7.90;5.07;;;;;;;19.29;61.06;102986.09;5078989;28;20048;-69
2023/05/20 06:54:40;;;;;;;6.15;4.28;;;;;;;19.37;59.79;102988.63;5097306;28;20040;-69
2023/05/20 06:57:09;;;;;;;6.95;4.28;;;;;;;19.61;58.67;102979.06;5062895;28;20035;-69
2023/05/20 06:59:35;;;;;;;7.18;4.32;;;;;;;19.39;58.51;102976.44;5078886;28;20409;-69
2023/05/20 07:02:02;;;;;;;7.45;4.25;;;;;;;19.51;58.23;102978.59;5061897;28;20043;-69
2023/05/20 07:04:27;;;;;;;6.75;3.90;;;;;;;19.48;57.94;102967.03;5075119;28;20158;-70
2023/05/20 07:06:53;;;;;;;9.32;4.32;;;;;;;19.42;56.85;102981.50;5080401;28;20028;-70
2023/05/20 07:09:19;;;;;;;6.07;4.30;;;;;;;19.18;57.15;102985.63;5079439;28;20471;-70
2023/05/20 07:11:44;;;;;;;7.60;4.40;;;;;;;19.40;56.73;102978.16;5100985;28;20487;-70
2023/05/20 07:14:10;;;;;;;10.80;4.32;;;;;;;19.54;56.15;102983.66;5048071;28;20046;-70
2023/05/20 07:16:36;;;;;;;8.10;4.20;;;;;;;19.62;55.64;102973.38;5088647;28;20036;-70
2023/05/20 07:19:02;;;;;;;9.00;4.28;;;;;;;19.62;55.87;102978.81;5069513;28;20081;-70
2023/05/20 07:21:28;;;;;;;10.68;4.05;;;;;;;19.65;55.28;102977.63;5101517;28;20024;-69
2023/05/20 07:23:53;;;;;;;8.48;4.07;;;;;;;19.94;54.72;102958.13;5101961;28;20028;-70
2023/05/20 07:26:20;;;;;;;6.97;3.72;;;;;;;20.16;53.92;102958.75;5084074;28;20028;-70
2023/05/20 07:28:46;;;;;;;7.38;3.90;;;;;;;20.05;53.53;102964.84;5083045;28;20114;-70
2023/05/20 07:31:11;;;;;;;12.13;4.03;;;;;;;20.12;53.33;102962.09;5101275;28;20115;-70
2023/05/20 07:33:37;;;;;;;6.65;4.25;;;;;;;20.11;52.95;102941.28;5100373;28;20052;-70
2023/05/20 07:36:03;;;;;;;8.77;4.00;;;;;;;20.37;52.90;102959.56;5100369;28;20059;-70
2023/05/20 07:38:29;;;;;;;7.65;3.55;;;;;;;20.48;52.46;102955.34;5082511;28;20030;-70
2023/05/20 07:40:54;;;;;;;9.35;4.10;;;;;;;20.57;52.21;102943.16;5100464;28;20028;-70
2023/05/20 07:43:20;;;;;;;6.93;3.78;;;;;;;20.58;51.62;102934.72;5082880;28;20165;-70
2023/05/20 07:45:45;;;;;;;6.32;3.58;;;;;;;20.73;51.95;102950.91;5100515;28;20103;-70
2023/05/20 07:48:11;;;;;;;6.55;3.60;;;;;;;20.71;51.85;102953.00;5088258;28;20077;-70
2023/05/20 07:50:38;;;;;;;6.43;3.38;;;;;;;20.88;51.80;102943.25;5079135;28;20542;-70
2023/05/20 07:53:04;;;;;;;6.97;3.70;;;;;;;20.77;50.56;102938.47;5082843;28;20055;-70
2023/05/20 07:55:32;;;;;;;7.40;3.60;;;;;;;20.74;50.19;102935.34;5081392;28;20070;-70
2023/05/20 07:57:58;;;;;;;6.82;3.85;;;;;;;20.64;49.92;102942.09;5065392;28;20120;-70
2023/05/20 08:00:23;;;;;;;4.40;3.10;;;;;;;20.62;49.49;102883.16;5082094;28;20076;-70
2023/05/20 08:02:49;;;;;;;7.78;3.50;;;;;;;21.01;48.92;102947.00;5082229;28;20024;-71
2023/05/20 08:05:15;;;;;;;10.55;3.63;;;;;;;21.09;48.87;102944.03;5081738;28;20053;-70
2023/05/20 08:07:40;;;;;;;4.82;3.47;;;;;;;21.26;48.60;102938.91;5082000;28;20036;-70
2023/05/20 08:10:06;;;;;;;4.35;3.20;;;;;;;21.21;48.04;102945.03;5081757;28;20546;-71
2023/05/20 08:12:32;;;;;;;6.90;3.22;;;;;;;21.20;48.17;102942.53;5090691;28;20028;-70
2023/05/20 08:14:57;;;;;;;7.13;3.42;;;;;;;21.11;47.76;102930.97;5081635;28;20034;-70
2023/05/20 08:17:22;;;;;;;6.47;3.53;;;;;;;21.20;48.32;102915.13;5064855;28;20024;-70
2023/05/20 08:19:48;;;;;;;5.68;3.15;;;;;;;21.50;47.86;102926.38;5099634;28;20024;-70
2023/05/20 08:22:13;;;;;;;6.13;3.40;;;;;;;21.46;47.89;102934.19;5099527;28;20073;-70
2023/05/20 08:24:39;;;;;;;6.72;3.50;;;;;;;21.42;47.60;102924.69;5099398;28;20029;-70
2023/05/20 08:27:04;;;;;;;5.18;3.33;;;;;;;21.50;47.20;102918.97;5099022;28;20078;-71
2023/05/20 08:29:31;;;;;;;6.28;3.53;;;;;;;21.96;47.70;102927.91;5064237;28;20109;-70
2023/05/20 08:31:56;;;;;;;6.00;3.53;;;;;;;22.03;47.06;102912.25;5073343;28;20032;-71
2023/05/20 08:34:22;;;;;;;5.18;3.35;;;;;;;21.95;47.33;102920.75;5074237;28;20032;-70
2023/05/20 08:36:47;;;;;;;6.57;3.50;;;;;;;22.19;46.89;102917.19;5080868;28;20099;-70
2023/05/20 08:39:14;;;;;;;5.50;3.38;;;;;;;22.34;46.88;102913.25;5081439;28;20070;-70
2023/05/20 08:41:39;;;;;;;4.97;3.53;;;;;;;22.51;46.22;102911.56;5082976;28;20057;-70
2023/05/20 08:44:08;;;;;;;6.18;3.55;;;;;;;22.67;46.29;102908.22;5079674;28;20024;-70
2023/05/20 08:46:35;;;;;;;6.15;3.85;;;;;;;22.55;46.32;102893.63;5077019;28;20027;-70
2023/05/20 08:49:01;;;;;;;5.88;3.40;;;;;;;22.66;46.65;102903.81;5098908;28;20103;-70
2023/05/20 08:51:28;;;;;;;8.32;3.63;;;;;;;22.65;46.41;102890.31;5097063;28;20112;-71
2023/05/20 08:53:53;;;;;;;6.68;3.70;;;;;;;22.82;46.56;102888.63;5078652;28;20060;-70
2023/05/20 08:56:20;;;;;;;5.10;3.38;;;;;;;23.00;46.26;102903.44;5099426;28;20169;-70
2023/05/20 08:58:46;;;;;;;4.60;3.05;;;;;;;23.03;46.08;102901.06;5098972;28;20024;-70
2023/05/20 09:01:12;;;;;;;5.20;3.42;;;;;;;23.20;45.96;102902.06;5081454;28;20048;-70
2023/05/20 09:03:37;;;;;;;6.60;3.65;;;;;;;23.05;45.25;102901.66;5081135;28;20131;-70
2023/05/20 09:06:04;;;;;;;8.80;3.65;;;;;;;22.84;45.00;102891.97;5063973;28;20032;-71
2023/05/20 09:08:30;;;;;;;7.88;3.20;;;;;;;22.85;45.35;102870.88;5101439;28;20035;-71
2023/05/20 09:10:56;;;;;;;6.57;3.55;;;;;;;22.86;44.41;102886.25;5101240;28;20036;-70
2023/05/20 09:13:23;;;;;;;5.03;3.55;;;;;;;22.79;44.39;102886.34;5080758;28;20028;-71
2023/05/20 09:15:49;;;;;;;6.10;3.47;;;;;;;23.01;44.99;102885.88;5104758;28;20024;-71
2023/05/20 09:18:14;;;;;;;6.85;3.20;;;;;;;23.12;43.63;102882.34;5111637;28;20514;-70
2023/05/20 09:20:40;;;;;;;5.25;3.10;;;;;;;23.31;44.04;102861.13;5081247;28;20522;-70
2023/05/20 09:23:09;;;;;;;5.88;3.13;;;;;;;23.56;43.89;102878.28;5081733;28;20028;-70
2023/05/20 09:25:36;;;;;;;6.80;3.40;;;;;;;23.38;44.22;102862.72;5099346;28;20102;-71
2023/05/20 09:28:06;;;;;;;6.85;2.95;;;;;;;23.67;42.30;102871.13;5080364;28;20047;-71
2023/05/20 09:30:32;;;;;;;6.22;2.90;;;;;;;23.71;41.83;102869.63;5098774;28;20024;-70
2023/05/20 09:32:59;;;;;;;5.78;3.35;;;;;;;23.88;41.47;102872.53;5078785;28;20104;-70
2023/05/20 09:35:26;;;;;;;5.45;2.95;;;;;;;24.06;41.72;102860.56;5061158;28;20036;-71
2023/05/20 09:37:53;;;;;;;7.00;2.80;;;;;;;24.31;41.03;102872.13;5077863;28;20162;-69
2023/05/20 09:40:28;;;;;;;7.35;3.20;;;;;;;24.15;40.81;102873.69;5063603;28;20062;-71
2023/05/20 09:42:53;;;;;;;;;;;;;;;24.15;40.56;102859.13;5080561;28;20032;-70
2023/05/20 09:45:21;;;;;;;5.80;3.60;;;;;;;23.56;47.15;102861.81;5099555;28;19979;-70
2023/05/20 09:47:47;;;;;;;6.82;3.88;;;;;;;23.70;47.65;102872.59;5080584;28;20317;-70
2023/05/20 09:50:13;;;;;;;6.07;3.83;;;;;;;23.43;48.84;102864.75;5080279;28;20048;-70
2023/05/20 09:52:40;;;;;;;7.78;3.50;;;;;;;23.18;48.30;102841.06;5063387;28;20027;-71
2023/05/20 09:55:06;;;;;;;7.13;3.28;;;;;;;23.51;47.83;102864.44;5079601;28;20024;-70
2023/05/20 09:57:36;;;;;;;6.93;3.15;;;;;;;23.85;47.10;102862.81;5062984;28;20032;-70
2023/05/20 10:00:12;;;;;;;4.90;2.88;;;;;;;23.64;46.00;102864.22;5065859;28;20056;-71
2023/05/20 10:02:40;;;;;;;6.43;3.30;;;;;;;23.78;47.64;102859.38;5094300;28;20039;-70
2023/05/20 10:05:12;;;;;;;7.05;3.53;;;;;;;23.14;52.86;102850.81;5081104;28;20087;-71
2023/05/20 10:08:02;;;;;;;6.90;3.47;;;;;;;22.85;53.39;102863.47;5098503;28;20367;-70
2023/05/20 10:10:49;;;;;;;5.15;3.70;;;;;;;21.96;59.24;102854.75;5080316;28;20016;-70
2023/05/20 10:13:46;;;;;;;6.57;3.50;;;;;;;21.83;59.75;102854.88;5079744;28;20028;-70
2023/05/20 10:16:37;;;;;;;9.15;4.70;;;;;;;21.63;62.42;102852.31;5079592;28;20055;-70
2023/05/20 10:19:08;;;;;;;10.05;4.30;;;;;;;21.40;64.02;102847.41;5097818;28;20036;-70
2023/05/20 10:21:34;;;;;;;6.22;4.05;;;;;;;21.43;64.18;102849.72;5078872;28;20379;-70
2023/05/20 10:24:07;;;;;;;7.15;4.45;;;;;;;21.41;65.27;102843.59;5095938;28;20027;-69
2023/05/20 10:26:40;;;;;;;9.48;5.00;;;;;;;20.99;68.25;102835.03;5077655;28;20038;-70
2023/05/20 10:29:15;;;;;;;8.80;4.95;;;;;;;20.41;71.96;102838.59;5093097;28;20128;-70
2023/05/20 10:31:48;;;;;;;8.50;4.85;;;;;;;20.33;72.55;102841.59;5078482;28;20028;-70
2023/05/20 10:34:18;;;;;;;9.25;4.88;;;;;;;20.39;72.97;102848.06;5062171;28;20036;-70
2023/05/20 10:36:58;;;;;;;9.80;4.97;;;;;;;20.54;72.03;102856.06;5096784;28;20566;-70
2023/05/20 10:39:33;;;;;;;9.73;4.20;;;;;;;21.02;70.29;102859.19;5078240;28;20024;-70
2023/05/20 10:42:11;;;;;;;8.55;4.53;;;;;;;21.07;67.61;102853.91;5077300;28;20028;-70
2023/05/20 10:44:46;;;;;;;7.18;4.18;;;;;;;20.97;66.23;102842.59;5079475;28;20016;-70
2023/05/20 10:47:12;;;;;;;7.88;4.10;;;;;;;21.28;64.93;102843.66;5079070;28;20027;-70
2023/05/20 10:49:45;;;;;;;6.57;4.10;;;;;;;21.67;62.65;102848.03;5096626;28;20088;-70
2023/05/20 10:52:12;;;;;;;7.75;4.03;;;;;;;21.75;61.02;102846.91;5078612;28;20024;-70
2023/05/20 10:54:55;;;;;;;6.72;3.90;;;;;;;22.00;58.55;102844.16;5079406;28;20170;-70
2023/05/20 10:57:22;;;;;;;7.72;4.07;;;;;;;21.80;58.48;102847.94;5079151;28;20024;-70
2023/05/20 10:59:50;;;;;;;8.05;4.00;;;;;;;21.63;58.23;102843.25;5087733;28;20138;-70
2023/05/20 11:02:16;;;;;;;7.25;4.30;;;;;;;21.71;58.03;102846.53;5108818;28;20020;-71
2023/05/20 11:04:43;;;;;;;7.68;3.95;;;;;;;21.80;56.79;102834.22;5079860;28;20530;-70
2023/05/20 11:07:08;;;;;;;7.38;3.60;;;;;;;21.76;56.69;102843.13;5062195;28;20046;-70
2023/05/20 11:09:34;;;;;;;6.60;3.80;;;;;;;21.71;55.81;102832.00;5078898;28;20111;-71
2023/05/20 11:12:00;;;;;;;9.27;4.05;;;;;;;21.77;55.07;102810.00;5062367;28;20032;-71
2023/05/20 11:14:29;;;;;;;7.97;3.83;;;;;;;22.18;53.46;102848.84;5076487;28;20140;-70